Time;durP1;ratioP1;P1;durP2;ratioP2;P2;SDS_P1;SDS_P2;PMS_P1;PMS_P2;Temp;Humidity;BMP_temperature;BMP_pressure;BME280_temperature;BME280_humidity;BME280_pressure;Samples;Min_cycle;Max_cycle;Signal;HPM_P1;HPM_P2
2023/05/14 00:01:01;;;;;;;25.42;15.98;;;11.60;99.90;;;;;;5067316;28;20040;-67
2023/05/14 00:03:27;;;;;;;25.48;15.32;;;11.60;99.90;;;;;;5072588;28;20449;-65
2023/05/14 00:05:52;;;;;;;36.53;16.30;;;11.60;99.90;;;;;;5053569;28;20119;-66
2023/05/14 00:08:18;;;;;;;27.20;15.80;;;11.60;99.90;;;;;;5068900;28;20079;-66
2023/05/14 00:10:44;;;;;;;29.55;16.55;;;11.60;99.90;;;;;;5076674;28;20091;-66
2023/05/14 00:13:09;;;;;;;26.70;16.55;;;11.60;99.90;;;;;;5083413;28;20133;-66
2023/05/14 00:15:35;;;;;;;31.45;16.55;;;11.60;99.90;;;;;;5066019;28;20511;-66
2023/05/14 00:18:01;;;;;;;27.08;16.25;;;11.60;99.90;;;;;;5059867;28;20036;-66
2023/05/14 00:20:27;;;;;;;28.70;16.25;;;11.60;99.90;;;;;;5049955;28;20041;-66
2023/05/14 00:22:52;;;;;;;31.05;16.40;;;11.60;99.90;;;;;;5068129;28;20053;-65
2023/05/14 00:25:18;;;;;;;29.27;16.95;;;11.60;99.90;;;;;;5050849;28;20048;-66
2023/05/14 00:27:44;;;;;;;30.95;16.58;;;11.60;99.90;;;;;;5050986;28;20048;-66
2023/05/14 00:30:10;;;;;;;30.75;16.20;;;11.60;99.90;;;;;;5049825;28;20045;-65
2023/05/14 00:32:36;;;;;;;26.30;16.20;;;11.50;99.90;;;;;;5066771;28;20076;-66
2023/05/14 00:35:04;;;;;;;28.65;16.00;;;11.50;99.90;;;;;;5049624;28;20496;-65
2023/05/14 00:37:30;;;;;;;26.40;15.98;;;11.50;99.90;;;;;;5067004;28;20079;-66
2023/05/14 00:39:56;;;;;;;29.60;15.18;;;11.50;99.90;;;;;;5050626;28;20037;-66
2023/05/14 00:42:22;;;;;;;23.13;15.48;;;11.50;99.90;;;;;;5050082;28;20037;-66
2023/05/14 00:44:48;;;;;;;26.25;15.32;;;11.50;99.90;;;;;;5049189;28;20044;-66
2023/05/14 00:47:13;;;;;;;30.67;15.73;;;11.50;99.90;;;;;;5066384;28;20041;-66
2023/05/14 00:49:40;;;;;;;27.92;15.35;;;11.50;99.90;;;;;;5066746;28;20040;-66
2023/05/14 00:52:06;;;;;;;28.45;16.15;;;11.40;99.90;;;;;;5066692;28;20113;-64
2023/05/14 00:54:32;;;;;;;25.35;15.07;;;11.40;99.90;;;;;;5049975;28;20044;-66
2023/05/14 00:57:02;;;;;;;30.38;15.95;;;11.40;99.90;;;;;;5050035;28;20512;-65
2023/05/14 00:59:28;;;;;;;26.27;15.43;;;11.40;99.90;;;;;;5050077;28;20508;-66
2023/05/14 01:01:54;;;;;;;26.80;15.52;;;11.40;99.90;;;;;;5049245;28;20037;-66
2023/05/14 01:04:19;;;;;;;25.25;16.23;;;11.40;99.90;;;;;;5060585;28;20066;-66
2023/05/14 01:07:10;;;;;;;31.20;15.80;;;11.40;99.90;;;;;;5068795;28;20060;-65
2023/05/14 01:10:01;;;;;;;22.70;15.52;;;11.40;99.90;;;;;;5057844;28;20268;-66
2023/05/14 01:12:35;;;;;;;27.13;16.25;;;11.40;99.90;;;;;;5069535;28;20097;-66
2023/05/14 01:15:10;;;;;;;24.83;14.45;;;11.30;99.90;;;;;;5066174;28;20047;-66
2023/05/14 01:17:44;;;;;;;;;;;11.30;99.90;;;;;;5049754;28;20040;-66
2023/05/14 01:20:11;;;;;;;27.25;15.65;;;11.30;99.90;;;;;;5066006;28;19926;-65
2023/05/14 01:22:37;;;;;;;29.35;14.55;;;11.30;99.90;;;;;;5049255;28;20047;-66
2023/05/14 01:25:04;;;;;;;28.58;15.55;;;11.30;99.90;;;;;;5066287;28;20052;-66
2023/05/14 01:27:57;;;;;;;28.42;15.63;;;11.20;99.90;;;;;;5078477;28;20056;-67
2023/05/14 01:30:37;;;;;;;23.38;15.10;;;11.30;99.90;;;;;;5084828;28;20189;-67
2023/05/14 01:33:10;;;;;;;27.17;15.38;;;11.20;99.90;;;;;;5049725;28;20692;-67
2023/05/14 01:35:36;;;;;;;26.48;15.88;;;11.20;99.90;;;;;;5049743;28;20032;-67
2023/05/14 01:38:06;;;;;;;32.05;15.18;;;11.20;99.90;;;;;;5053157;28;20063;-68
2023/05/14 01:40:32;;;;;;;29.48;14.77;;;11.20;99.90;;;;;;5049234;28;20066;-67
2023/05/14 01:42:59;;;;;;;28.65;14.73;;;11.10;99.90;;;;;;5065749;28;20604;-67
2023/05/14 01:45:25;;;;;;;24.05;13.50;;;11.10;99.90;;;;;;5048818;28;20717;-67
2023/05/14 01:47:52;;;;;;;25.85;14.18;;;11.10;99.90;;;;;;5080270;28;20511;-67
2023/05/14 01:50:18;;;;;;;27.27;14.00;;;11.10;99.90;;;;;;5082377;28;20135;-67
2023/05/14 01:52:44;;;;;;;28.70;13.98;;;11.10;99.90;;;;;;5053488;28;20127;-68
2023/05/14 01:55:10;;;;;;;28.92;15.13;;;11.00;99.90;;;;;;5065515;28;20131;-67
2023/05/14 01:57:35;;;;;;;25.55;14.18;;;11.00;99.90;;;;;;5065685;28;20101;-68
2023/05/14 02:00:02;;;;;;;23.75;14.23;;;11.00;99.90;;;;;;5066611;28;20044;-68
2023/05/14 02:02:28;;;;;;;23.98;15.52;;;11.00;99.90;;;;;;5064600;28;20048;-67
2023/05/14 02:04:54;;;;;;;21.60;13.57;;;11.00;99.90;;;;;;5064902;28;20044;-67
2023/05/14 02:07:20;;;;;;;27.35;15.10;;;11.00;99.90;;;;;;5048574;28;20040;-67
2023/05/14 02:09:45;;;;;;;23.65;14.70;;;11.00;99.90;;;;;;5048415;28;20534;-67
2023/05/14 02:12:11;;;;;;;25.30;14.23;;;11.00;99.90;;;;;;5048328;28;20083;-67
2023/05/14 02:14:37;;;;;;;26.92;14.77;;;11.00;99.90;;;;;;5047917;28;20698;-67
2023/05/14 02:17:03;;;;;;;26.42;14.45;;;11.00;99.90;;;;;;5080896;28;20047;-66
2023/05/14 02:19:29;;;;;;;24.60;14.68;;;11.00;99.90;;;;;;5066572;28;20039;-67
2023/05/14 02:21:55;;;;;;;27.27;15.18;;;11.00;99.90;;;;;;5064882;28;20668;-66
2023/05/14 02:24:21;;;;;;;30.35;15.05;;;10.90;99.90;;;;;;5048144;28;20051;-67
2023/05/14 02:26:46;;;;;;;32.00;15.27;;;10.90;99.90;;;;;;5065036;28;20687;-66
2023/05/14 02:29:12;;;;;;;23.75;14.60;;;11.00;99.90;;;;;;5048445;28;20459;-66
2023/05/14 02:31:38;;;;;;;32.20;15.23;;;11.00;99.90;;;;;;5063783;28;20039;-67
2023/05/14 02:34:07;;;;;;;28.85;14.95;;;11.00;99.90;;;;;;5048558;28;20068;-67
2023/05/14 02:36:33;;;;;;;24.05;13.95;;;11.00;99.90;;;;;;5048538;28;20101;-66
2023/05/14 02:39:03;;;;;;;26.92;14.30;;;11.00;99.90;;;;;;5083268;28;20068;-67
2023/05/14 02:41:29;;;;;;;27.05;13.45;;;11.00;99.90;;;;;;5067308;28;20040;-67
2023/05/14 02:43:55;;;;;;;32.38;14.07;;;11.00;99.90;;;;;;5085179;28;20058;-67
2023/05/14 02:46:20;;;;;;;28.35;14.40;;;11.00;99.90;;;;;;5068242;28;20110;-67
2023/05/14 02:48:46;;;;;;;26.13;14.45;;;11.00;99.90;;;;;;5075070;28;20169;-68
2023/05/14 02:51:12;;;;;;;34.15;15.18;;;11.10;99.90;;;;;;5067750;28;20079;-67
2023/05/14 02:53:38;;;;;;;29.55;14.48;;;11.00;99.90;;;;;;5051505;28;20048;-66
2023/05/14 02:56:03;;;;;;;28.00;14.48;;;11.00;99.90;;;;;;5064209;28;20505;-66
2023/05/14 02:58:29;;;;;;;34.13;15.80;;;11.00;99.90;;;;;;5048320;28;20040;-67
2023/05/14 03:00:55;;;;;;;26.40;14.80;;;11.00;99.90;;;;;;5046785;28;20051;-66
2023/05/14 03:03:21;;;;;;;34.38;14.60;;;11.00;99.90;;;;;;5047622;28;20043;-66
2023/05/14 03:05:47;;;;;;;29.98;14.75;;;11.00;99.90;;;;;;5064111;28;20048;-67
2023/05/14 03:08:12;;;;;;;32.50;15.13;;;11.00;99.90;;;;;;5055793;28;20040;-67
2023/05/14 03:10:38;;;;;;;30.88;15.80;;;11.00;99.90;;;;;;5063893;28;20781;-66
2023/05/14 03:13:04;;;;;;;29.25;15.15;;;10.90;99.90;;;;;;5047463;28;20681;-66
2023/05/14 03:15:30;;;;;;;34.40;16.13;;;10.90;99.90;;;;;;5063908;28;20044;-66
2023/05/14 03:17:55;;;;;;;30.98;15.90;;;10.90;99.90;;;;;;5047283;28;20085;-67
2023/05/14 03:20:23;;;;;;;31.08;15.98;;;10.90;99.90;;;;;;5063631;28;20040;-66
2023/05/14 03:22:49;;;;;;;33.53;15.43;;;10.90;99.90;;;;;;5063377;28;20032;-67
2023/05/14 03:25:15;;;;;;;32.55;16.08;;;10.90;99.90;;;;;;5047369;28;20040;-67
2023/05/14 03:27:40;;;;;;;30.63;15.07;;;10.90;99.90;;;;;;5064188;28;20318;-67
2023/05/14 03:30:07;;;;;;;32.78;14.75;;;10.90;99.90;;;;;;5067396;28;20118;-68
2023/05/14 03:32:33;;;;;;;28.27;15.20;;;10.90;99.90;;;;;;5066980;28;20090;-67
2023/05/14 03:34:58;;;;;;;38.08;17.02;;;10.90;99.90;;;;;;5045347;28;20037;-67
2023/05/14 03:37:24;;;;;;;27.38;14.55;;;10.90;99.90;;;;;;5064247;28;20052;-67
2023/05/14 03:39:50;;;;;;;31.20;15.75;;;10.80;99.90;;;;;;5047364;28;20282;-67
2023/05/14 03:42:15;;;;;;;32.03;15.80;;;10.80;99.90;;;;;;5051060;28;20498;-68
2023/05/14 03:44:41;;;;;;;28.95;14.90;;;10.80;99.90;;;;;;5083246;28;20040;-67
2023/05/14 03:47:07;;;;;;;29.50;15.25;;;10.80;99.90;;;;;;5082419;28;20517;-67
2023/05/14 03:49:33;;;;;;;29.20;15.55;;;10.80;99.90;;;;;;5065764;28;20466;-67
2023/05/14 03:51:58;;;;;;;30.02;15.70;;;10.80;99.90;;;;;;5063650;28;20044;-67
2023/05/14 03:54:25;;;;;;;29.75;16.02;;;10.80;99.90;;;;;;5046707;28;20044;-68
2023/05/14 03:56:51;;;;;;;29.55;15.48;;;10.80;99.90;;;;;;5063572;28;20087;-68
2023/05/14 03:59:16;;;;;;;30.52;15.73;;;10.80;99.90;;;;;;5047150;28;20080;-67
2023/05/14 04:01:43;;;;;;;34.65;15.65;;;10.80;99.90;;;;;;5053958;28;20048;-68
2023/05/14 04:04:09;;;;;;;27.45;15.27;;;10.80;99.90;;;;;;5056041;28;20040;-67
2023/05/14 04:06:35;;;;;;;30.85;16.58;;;10.80;99.90;;;;;;5067297;28;20093;-68
2023/05/14 04:09:01;;;;;;;34.13;17.20;;;10.80;99.90;;;;;;5047374;28;20685;-68
2023/05/14 04:11:27;;;;;;;34.22;16.63;;;10.80;99.90;;;;;;5046717;28;20060;-68
2023/05/14 04:13:53;;;;;;;33.33;16.73;;;10.80;99.90;;;;;;5047116;28;20103;-68
2023/05/14 04:16:19;;;;;;;32.17;16.13;;;10.80;99.90;;;;;;5046717;28;20432;-68
2023/05/14 04:18:45;;;;;;;29.08;16.63;;;10.80;99.90;;;;;;5062960;28;20051;-68
2023/05/14 04:21:11;;;;;;;26.02;15.68;;;10.80;99.90;;;;;;5046267;28;20515;-67
2023/05/14 04:23:37;;;;;;;35.63;16.65;;;10.80;99.90;;;;;;5047017;28;20044;-67
2023/05/14 04:26:04;;;;;;;30.08;15.55;;;10.90;99.90;;;;;;5063656;28;20040;-68
2023/05/14 04:28:29;;;;;;;34.83;17.73;;;10.90;99.90;;;;;;5063243;28;20045;-69
2023/05/14 04:30:55;;;;;;;33.35;15.95;;;10.90;99.90;;;;;;5049655;28;20114;-69
2023/05/14 04:33:21;;;;;;;40.22;17.15;;;11.00;99.90;;;;;;5058839;28;20119;-68
2023/05/14 04:35:47;;;;;;;43.90;17.48;;;11.00;99.90;;;;;;5046452;28;20036;-67
2023/05/14 04:38:13;;;;;;;36.47;17.13;;;11.10;99.90;;;;;;5046854;28;20041;-67
2023/05/14 04:40:40;;;;;;;39.63;18.00;;;11.10;99.90;;;;;;5046452;28;20077;-68
2023/05/14 04:43:06;;;;;;;43.38;19.35;;;11.20;99.90;;;;;;5046841;28;20062;-68
2023/05/14 04:45:32;;;;;;;39.40;17.75;;;11.30;99.90;;;;;;5046328;28;20039;-69
2023/05/14 04:47:59;;;;;;;44.55;17.23;;;11.40;99.90;;;;;;5062623;28;20041;-67
2023/05/14 04:50:25;;;;;;;46.55;19.23;;;11.50;99.90;;;;;;5046083;28;20039;-67
2023/05/14 04:52:51;;;;;;;36.70;18.20;;;11.50;99.90;;;;;;5045947;28;20141;-67
2023/05/14 04:55:16;;;;;;;38.17;17.27;;;11.60;99.90;;;;;;5046480;28;20557;-67
2023/05/14 04:57:42;;;;;;;42.10;16.77;;;11.70;99.90;;;;;;5063148;28;20044;-68
2023/05/14 05:00:09;;;;;;;49.05;17.73;;;11.80;99.90;;;;;;5062683;28;20040;-66
2023/05/14 05:02:35;;;;;;;32.42;16.15;;;11.90;99.90;;;;;;5071963;28;20530;-67
2023/05/14 05:05:01;;;;;;;32.70;15.45;;;12.10;99.90;;;;;;5066782;28;20054;-67
2023/05/14 05:07:27;;;;;;;40.30;17.13;;;12.30;99.90;;;;;;5061592;28;20063;-66
2023/05/14 05:09:53;;;;;;;36.58;15.95;;;12.40;99.90;;;;;;5049933;28;20047;-67
2023/05/14 05:12:20;;;;;;;28.90;15.63;;;12.40;99.90;;;;;;5049457;28;20415;-68
2023/05/14 05:14:45;;;;;;;41.13;16.65;;;12.30;99.90;;;;;;5049217;28;20040;-67
2023/05/14 05:17:11;;;;;;;37.28;15.85;;;12.30;99.90;;;;;;5049695;28;20047;-68
2023/05/14 05:19:37;;;;;;;32.15;16.42;;;12.30;99.90;;;;;;5049219;28;20032;-67
2023/05/14 05:22:03;;;;;;;33.78;16.42;;;12.20;99.90;;;;;;5068043;28;20068;-67
2023/05/14 05:24:29;;;;;;;32.65;15.05;;;12.20;99.90;;;;;;5049597;28;20062;-68
2023/05/14 05:26:55;;;;;;;36.08;14.60;;;12.20;99.90;;;;;;5065960;28;20037;-68
2023/05/14 05:29:22;;;;;;;31.45;14.95;;;12.20;99.90;;;;;;5049071;28;20539;-66
2023/05/14 05:31:48;;;;;;;35.38;13.98;;;12.30;99.90;;;;;;5048720;28;20084;-67
2023/05/14 05:34:14;;;;;;;29.85;13.82;;;12.40;99.90;;;;;;5048792;28;20109;-67
2023/05/14 05:36:43;;;;;;;29.27;14.00;;;12.40;99.90;;;;;;5049603;28;20072;-67
2023/05/14 05:39:08;;;;;;;26.23;12.70;;;12.60;99.90;;;;;;5049596;28;20178;-68
2023/05/14 05:41:34;;;;;;;26.38;13.07;;;12.80;99.90;;;;;;5048836;28;20131;-67
2023/05/14 05:44:00;;;;;;;32.13;14.15;;;12.90;99.90;;;;;;5068562;28;20036;-67
2023/05/14 05:46:26;;;;;;;28.10;12.77;;;13.00;99.90;;;;;;5085585;28;20048;-67
2023/05/14 05:48:52;;;;;;;32.78;12.68;;;13.10;99.90;;;;;;5057297;28;20523;-67
2023/05/14 05:51:18;;;;;;;33.47;12.15;;;13.10;99.90;;;;;;5065115;28;20208;-66
2023/05/14 05:53:43;;;;;;;30.17;13.52;;;13.20;99.90;;;;;;5048855;28;20441;-66
2023/05/14 05:56:09;;;;;;;24.15;11.40;;;13.20;99.90;;;;;;5065943;28;20052;-67
2023/05/14 05:58:35;;;;;;;30.90;12.27;;;13.30;99.90;;;;;;5066050;28;20123;-68
2023/05/14 06:01:01;;;;;;;24.45;11.63;;;13.40;99.90;;;;;;5048429;28;20156;-67
2023/05/14 06:03:27;;;;;;;26.00;11.82;;;13.50;99.90;;;;;;5068842;28;20036;-66
2023/05/14 06:05:52;;;;;;;25.52;11.40;;;13.50;99.90;;;;;;5068781;28;20036;-67
2023/05/14 06:08:18;;;;;;;28.83;11.68;;;13.60;99.90;;;;;;5072021;28;20063;-71
2023/05/14 06:10:45;;;;;;;29.83;11.35;;;13.80;99.90;;;;;;5064981;28;20076;-67
2023/05/14 06:13:11;;;;;;;27.70;10.23;;;13.90;99.90;;;;;;5068831;28;20079;-66
2023/05/14 06:15:36;;;;;;;22.75;10.48;;;14.10;99.90;;;;;;5073744;28;20072;-66
2023/05/14 06:18:02;;;;;;;28.73;10.63;;;14.20;99.90;;;;;;5064180;28;20121;-65
2023/05/14 06:20:28;;;;;;;31.75;11.93;;;14.20;99.90;;;;;;5048117;28;20124;-67
2023/05/14 06:22:54;;;;;;;20.90;10.25;;;14.40;99.90;;;;;;5048535;28;20044;-68
2023/05/14 06:25:19;;;;;;;24.95;9.98;;;14.40;99.90;;;;;;5065326;28;20043;-67
2023/05/14 06:27:45;;;;;;;19.17;9.80;;;14.50;99.90;;;;;;5048556;28;20093;-65
2023/05/14 06:30:11;;;;;;;30.23;10.15;;;14.60;99.90;;;;;;5065963;28;20098;-67
2023/05/14 06:32:37;;;;;;;27.13;9.85;;;14.70;99.90;;;;;;5047761;28;20052;-68
2023/05/14 06:35:03;;;;;;;20.05;9.70;;;14.90;99.90;;;;;;5066492;28;20040;-65
2023/05/14 06:37:29;;;;;;;22.30;9.63;;;15.00;99.90;;;;;;5064716;28;20535;-66
2023/05/14 06:39:55;;;;;;;21.73;9.52;;;15.20;99.90;;;;;;5065031;28;20047;-68
2023/05/14 06:42:21;;;;;;;21.90;8.93;;;15.30;99.90;;;;;;5055529;28;20032;-68
2023/05/14 06:44:46;;;;;;;18.00;8.88;;;15.40;99.90;;;;;;5084566;28;20048;-67
2023/05/14 06:47:12;;;;;;;24.40;9.52;;;15.50;99.90;;;;;;5084754;28;20044;-67
2023/05/14 06:49:38;;;;;;;20.85;8.30;;;15.60;99.90;;;;;;5050047;28;20056;-67
2023/05/14 06:52:04;;;;;;;18.80;8.43;;;15.60;99.90;;;;;;5047604;28;20052;-68
2023/05/14 06:54:30;;;;;;;21.73;8.35;;;15.70;99.90;;;;;;5047638;28;20123;-68
2023/05/14 06:56:56;;;;;;;19.38;8.82;;;15.70;99.90;;;;;;5064386;28;20551;-67
2023/05/14 06:59:22;;;;;;;22.50;8.73;;;15.70;99.90;;;;;;5047306;28;20045;-69
2023/05/14 07:01:47;;;;;;;21.35;7.80;;;15.70;99.90;;;;;;5066697;28;20535;-69
2023/05/14 07:04:13;;;;;;;19.27;8.10;;;15.70;99.90;;;;;;5056253;28;20147;-68
2023/05/14 07:06:39;;;;;;;20.98;8.88;;;15.70;99.90;;;;;;5074960;28;20036;-69
2023/05/14 07:09:05;;;;;;;18.80;7.80;;;15.60;99.90;;;;;;5047950;28;20344;-66
2023/05/14 07:11:32;;;;;;;25.83;9.05;;;15.60;99.90;;;;;;5082862;28;20503;-67
2023/05/14 07:13:58;;;;;;;15.55;7.65;;;15.50;99.90;;;;;;5061724;28;20041;-67
2023/05/14 07:16:25;;;;;;;21.08;8.48;;;15.60;99.90;;;;;;5064229;28;20420;-68
2023/05/14 07:18:50;;;;;;;16.25;7.50;;;15.60;99.90;;;;;;5047645;28;20488;-67
2023/05/14 07:21:16;;;;;;;24.30;8.80;;;15.70;99.90;;;;;;5064482;28;20043;-64
2023/05/14 07:23:42;;;;;;;20.33;7.78;;;15.70;99.90;;;;;;5066142;28;20549;-67
2023/05/14 07:26:08;;;;;;;18.55;7.93;;;15.70;99.90;;;;;;5063962;28;20072;-66
2023/05/14 07:28:34;;;;;;;23.63;8.45;;;15.70;99.90;;;;;;5047465;28;20131;-63
2023/05/14 07:30:59;;;;;;;24.50;7.70;;;15.70;99.90;;;;;;5046566;28;20048;-64
2023/05/14 07:33:25;;;;;;;19.55;8.13;;;15.70;99.90;;;;;;5063276;28;20588;-63
2023/05/14 07:35:52;;;;;;;22.08;9.20;;;15.60;99.90;;;;;;5075061;28;20446;-63
2023/05/14 07:38:18;;;;;;;22.90;8.45;;;15.60;99.90;;;;;;5071372;28;20509;-64
2023/05/14 07:40:43;;;;;;;19.48;8.57;;;15.60;99.90;;;;;;5063828;28;20123;-65
2023/05/14 07:43:09;;;;;;;18.85;9.23;;;15.50;99.90;;;;;;5047243;28;20094;-62
2023/05/14 07:45:36;;;;;;;19.73;9.15;;;15.50;99.90;;;;;;5052266;28;20129;-61
2023/05/14 07:48:02;;;;;;;22.38;8.93;;;15.50;99.90;;;;;;5063211;28;20044;-64
2023/05/14 07:50:28;;;;;;;19.23;8.35;;;15.40;99.90;;;;;;5062636;28;20048;-67
2023/05/14 07:52:53;;;;;;;20.38;8.50;;;15.40;99.90;;;;;;5063871;28;20173;-66
2023/05/14 07:55:19;;;;;;;20.98;9.00;;;15.40;99.90;;;;;;5046559;28;20032;-64
2023/05/14 07:57:48;;;;;;;18.33;8.90;;;15.40;99.90;;;;;;5047443;28;20545;-66
2023/05/14 08:00:15;;;;;;;21.50;9.80;;;15.40;99.90;;;;;;5063354;28;20048;-66
2023/05/14 08:02:41;;;;;;;20.67;9.48;;;15.50;99.90;;;;;;5046807;28;20048;-68
2023/05/14 08:05:08;;;;;;;21.33;9.27;;;15.60;99.90;;;;;;5080431;28;20044;-63
2023/05/14 08:07:34;;;;;;;21.63;8.70;;;15.70;99.90;;;;;;5077080;28;20033;-65
2023/05/14 08:10:00;;;;;;;19.60;8.27;;;15.80;99.90;;;;;;5046984;28;20063;-67
2023/05/14 08:12:27;;;;;;;16.17;7.38;;;15.90;99.90;;;;;;5063247;28;20055;-66
2023/05/14 08:14:53;;;;;;;16.55;7.18;;;16.10;99.90;;;;;;5064448;28;20068;-64
2023/05/14 08:17:19;;;;;;;16.65;7.47;;;16.20;99.90;;;;;;5054332;28;20123;-68
2023/05/14 08:19:45;;;;;;;22.85;8.98;;;16.30;99.90;;;;;;5065661;28;20085;-68
2023/05/14 08:22:11;;;;;;;17.30;8.40;;;16.50;99.90;;;;;;5075303;28;20042;-67
2023/05/14 08:24:38;;;;;;;14.98;8.13;;;16.60;99.90;;;;;;5063415;28;20320;-67
2023/05/14 08:27:03;;;;;;;20.35;7.40;;;16.70;99.90;;;;;;5063481;28;20052;-63
2023/05/14 08:29:29;;;;;;;22.35;8.57;;;16.90;99.90;;;;;;5063993;28;20048;-61
2023/05/14 08:31:55;;;;;;;15.35;7.88;;;16.80;99.90;;;;;;5064414;28;20083;-63
2023/05/14 08:34:21;;;;;;;16.77;7.30;;;16.80;99.90;;;;;;5062715;28;20044;-65
2023/05/14 08:36:47;;;;;;;21.92;8.68;;;16.80;99.90;;;;;;5084597;28;20041;-64
2023/05/14 08:39:12;;;;;;;17.05;8.05;;;16.80;99.90;;;;;;5063588;28;20434;-64
2023/05/14 08:41:39;;;;;;;20.27;8.57;;;16.90;99.90;;;;;;5066266;28;20036;-66
2023/05/14 08:44:18;;;;;;;20.70;8.23;;;17.00;99.90;;;;;;5067298;28;20298;-67
2023/05/14 08:46:45;;;;;;;18.05;8.23;;;17.10;99.90;;;;;;5050838;28;20045;-67
2023/05/14 08:49:41;;;;;;;16.33;7.15;;;17.10;99.90;;;;;;5066679;28;20166;-68
2023/05/14 08:52:10;;;;;;;18.63;7.72;;;17.20;99.90;;;;;;5067264;28;20044;-66
2023/05/14 08:54:36;;;;;;;22.05;8.82;;;17.30;99.90;;;;;;5066742;28;20124;-67
2023/05/14 08:57:03;;;;;;;16.65;8.13;;;17.30;99.90;;;;;;5050399;28;20406;-64
2023/05/14 08:59:29;;;;;;;19.13;7.60;;;17.30;99.90;;;;;;5066129;28;20040;-66
2023/05/14 09:01:57;;;;;;;15.77;8.23;;;17.30;99.90;;;;;;5066779;28;20036;-66
2023/05/14 09:04:24;;;;;;;17.45;7.68;;;17.20;99.90;;;;;;5068038;28;20044;-67
2023/05/14 09:06:52;;;;;;;17.08;8.50;;;17.20;99.90;;;;;;5078387;28;20048;-67
2023/05/14 09:09:21;;;;;;;17.27;8.63;;;17.20;99.90;;;;;;5069635;28;20527;-69
2023/05/14 09:11:48;;;;;;;21.50;10.43;;;17.30;99.90;;;;;;5065963;28;20044;-67
2023/05/14 09:14:14;;;;;;;18.65;9.93;;;17.40;99.90;;;;;;5060603;28;20440;-65
2023/05/14 09:16:41;;;;;;;20.95;10.50;;;17.40;99.90;;;;;;5082497;28;20415;-63
2023/05/14 09:19:07;;;;;;;20.85;9.82;;;17.40;99.90;;;;;;5073838;28;20078;-67
2023/05/14 09:21:34;;;;;;;19.92;9.85;;;17.30;99.90;;;;;;5066283;28;20075;-65
2023/05/14 09:23:59;;;;;;;21.30;10.05;;;17.40;99.90;;;;;;5067699;28;20044;-65
2023/05/14 09:26:26;;;;;;;21.05;10.75;;;17.40;99.90;;;;;;5065706;28;20127;-67
2023/05/14 09:29:00;;;;;;;14.63;9.95;;;17.50;99.90;;;;;;5049063;28;20063;-64
2023/05/14 09:31:33;;;;;;;16.92;9.93;;;17.60;99.90;;;;;;5064917;28;20059;-67
2023/05/14 09:33:59;;;;;;;16.65;9.60;;;17.70;99.90;;;;;;5080926;28;20041;-67
2023/05/14 09:36:26;;;;;;;21.80;10.68;;;17.80;99.90;;;;;;5085411;28;20036;-68
2023/05/14 09:39:03;;;;;;;17.70;10.50;;;17.90;99.90;;;;;;5052329;28;20040;-67
2023/05/14 09:41:29;;;;;;;17.98;9.93;;;18.00;99.90;;;;;;5065879;28;20036;-67
2023/05/14 09:43:56;;;;;;;18.50;10.02;;;18.00;99.90;;;;;;5065156;28;20040;-65
2023/05/14 09:46:22;;;;;;;17.27;9.60;;;17.90;99.90;;;;;;5065678;28;20123;-65
2023/05/14 09:48:49;;;;;;;18.05;9.77;;;18.00;99.90;;;;;;5066619;28;20044;-66
2023/05/14 09:51:19;;;;;;;17.85;10.82;;;17.90;99.90;;;;;;5066103;28;20040;-65
2023/05/14 09:53:45;;;;;;;14.55;9.18;;;17.90;99.90;;;;;;5049139;28;20036;-65
2023/05/14 09:56:11;;;;;;;14.38;8.68;;;17.90;99.90;;;;;;5065534;28;20233;-64
2023/05/14 09:58:37;;;;;;;17.65;8.57;;;17.90;99.90;;;;;;5049377;28;20610;-68
2023/05/14 10:01:04;;;;;;;14.77;8.85;;;18.00;99.90;;;;;;5064729;28;20557;-66
2023/05/14 10:03:31;;;;;;;16.45;8.68;;;18.10;99.90;;;;;;5049490;28;20036;-66
2023/05/14 10:06:01;;;;;;;13.73;8.60;;;18.20;99.90;;;;;;5085652;28;20119;-64
2023/05/14 10:08:33;;;;;;;16.23;8.82;;;18.30;99.90;;;;;;5078729;28;20555;-63
2023/05/14 10:11:05;;;;;;;13.85;8.48;;;18.50;99.90;;;;;;5051769;28;20131;-68
2023/05/14 10:13:36;;;;;;;12.48;9.05;;;18.50;99.90;;;;;;5076186;28;20102;-65
2023/05/14 10:16:28;;;;;;;15.43;9.27;;;18.60;99.90;;;;;;5048310;28;20043;-69
2023/05/14 10:18:59;;;;;;;14.65;8.95;;;18.70;99.90;;;;;;5065145;28;20036;-65
2023/05/14 10:21:27;;;;;;;12.43;7.68;;;18.90;99.90;;;;;;5064822;28;20689;-64
2023/05/14 10:23:53;;;;;;;11.48;7.78;;;18.90;99.90;;;;;;5065358;28;20522;-62
2023/05/14 10:26:19;;;;;;;13.38;7.68;;;18.90;99.10;;;;;;5066399;28;20036;-63
2023/05/14 10:28:46;;;;;;;13.55;7.60;;;18.80;98.60;;;;;;5065348;28;20126;-64
2023/05/14 10:31:13;;;;;;;12.93;6.93;;;18.80;98.40;;;;;;5064271;28;20040;-64
2023/05/14 10:33:49;;;;;;;13.80;6.65;;;18.90;98.30;;;;;;5064666;28;20048;-67
2023/05/14 10:36:17;;;;;;;14.10;7.28;;;19.00;98.30;;;;;;5064694;28;20529;-66
2023/05/14 10:38:43;;;;;;;12.68;5.15;;;19.10;98.50;;;;;;5048033;28;20577;-68
2023/05/14 10:41:11;;;;;;;11.95;5.95;;;19.20;98.00;;;;;;5047867;28;20186;-65
2023/05/14 10:43:39;;;;;;;10.35;4.75;;;19.40;97.50;;;;;;5032741;28;20071;-65
2023/05/14 10:46:05;;;;;;;14.25;5.35;;;19.50;96.80;;;;;;5066115;28;20025;-65
2023/05/14 10:48:32;;;;;;;14.65;5.18;;;19.70;95.40;;;;;;5065222;28;20029;-65
2023/05/14 10:50:59;;;;;;;9.70;5.05;;;19.70;95.00;;;;;;5048057;28;20102;-65
2023/05/14 10:53:33;;;;;;;9.88;5.20;;;19.80;95.50;;;;;;5048197;28;20033;-66
2023/05/14 10:56:05;;;;;;;12.35;5.72;;;19.90;95.60;;;;;;5065007;28;20048;-66
2023/05/14 10:58:34;;;;;;;13.60;5.82;;;19.90;95.10;;;;;;5066073;28;20766;-66
2023/05/14 11:01:00;;;;;;;11.70;5.95;;;20.00;95.50;;;;;;5047265;28;20512;-65
2023/05/14 11:03:32;;;;;;;10.82;5.20;;;20.00;95.30;;;;;;5062317;28;20111;-64
2023/05/14 11:06:02;;;;;;;9.85;5.10;;;20.10;94.90;;;;;;5056127;28;20041;-67
2023/05/14 11:08:28;;;;;;;9.57;4.60;;;20.10;94.40;;;;;;5047444;28;20049;-65
2023/05/14 11:10:55;;;;;;;9.82;4.72;;;20.20;95.00;;;;;;5076817;28;20101;-66
2023/05/14 11:13:21;;;;;;;15.00;5.00;;;20.20;94.70;;;;;;5067517;28;20060;-68
2023/05/14 11:15:48;;;;;;;10.45;4.72;;;20.30;94.20;;;;;;5067091;28;20044;-66
2023/05/14 11:18:26;;;;;;;14.82;4.80;;;20.40;93.90;;;;;;5050425;28;20048;-68
2023/05/14 11:20:52;;;;;;;11.85;4.70;;;20.50;94.10;;;;;;5046052;28;20068;-68
2023/05/14 11:23:17;;;;;;;10.25;4.70;;;20.60;93.40;;;;;;5067171;28;20540;-67
2023/05/14 11:25:43;;;;;;;10.80;4.60;;;20.60;93.70;;;;;;5064053;28;20068;-66
2023/05/14 11:28:09;;;;;;;10.50;4.50;;;20.70;93.60;;;;;;5063816;28;20388;-67
2023/05/14 11:30:34;;;;;;;7.93;4.25;;;20.80;92.90;;;;;;5062584;28;20127;-66
2023/05/14 11:33:00;;;;;;;9.95;4.35;;;20.80;92.80;;;;;;5065548;28;20509;-67
2023/05/14 11:35:26;;;;;;;10.00;4.25;;;20.90;93.10;;;;;;5062223;28;20040;-69
2023/05/14 11:37:52;;;;;;;9.07;4.22;;;21.00;92.50;;;;;;5047446;28;20072;-65
2023/05/14 11:40:18;;;;;;;10.55;4.60;;;21.10;92.10;;;;;;5046798;28;20131;-67
2023/05/14 11:42:44;;;;;;;13.82;4.00;;;21.10;91.10;;;;;;5063929;28;20040;-66
2023/05/14 11:45:11;;;;;;;11.50;4.72;;;21.20;91.00;;;;;;5063600;28;20415;-67
2023/05/14 11:47:37;;;;;;;10.02;4.63;;;21.20;90.30;;;;;;5063659;28;20037;-65
2023/05/14 11:50:03;;;;;;;8.10;3.60;;;21.30;90.30;;;;;;5079707;28;20106;-68
2023/05/14 11:52:30;;;;;;;9.70;4.18;;;21.40;90.10;;;;;;5047600;28;20040;-66
2023/05/14 11:54:55;;;;;;;11.02;4.38;;;21.50;89.90;;;;;;5064033;28;20041;-68
2023/05/14 11:57:21;;;;;;;8.30;4.32;;;21.60;87.30;;;;;;5064119;28;20067;-67
2023/05/14 11:59:48;;;;;;;9.77;4.47;;;21.60;85.70;;;;;;5046457;28;20396;-68
2023/05/14 12:02:16;;;;;;;7.13;3.67;;;21.70;86.90;;;;;;5046985;28;20040;-67
2023/05/14 12:04:43;;;;;;;8.77;4.30;;;21.70;87.50;;;;;;5049328;28;20044;-67
2023/05/14 12:07:15;;;;;;;10.68;4.07;;;21.70;86.00;;;;;;5063415;28;20049;-66
2023/05/14 12:09:48;;;;;;;6.80;3.60;;;21.50;79.60;;;;;;5046506;28;20044;-68
2023/05/14 12:12:15;;;;;;;9.48;3.38;;;21.40;77.40;;;;;;5062810;28;20132;-68
2023/05/14 12:14:42;;;;;;;6.85;3.80;;;21.20;77.50;;;;;;5079372;28;20119;-70
2023/05/14 12:17:36;;;;;;;7.85;3.97;;;21.30;80.40;;;;;;5056509;28;20052;-68
2023/05/14 12:20:02;;;;;;;7.80;4.22;;;21.40;83.30;;;;;;5047980;28;20080;-68
2023/05/14 12:22:28;;;;;;;7.57;3.25;;;21.40;81.10;;;;;;5051160;28;20483;-67
2023/05/14 12:24:56;;;;;;;8.52;3.85;;;21.40;73.50;;;;;;5050872;28;20109;-68
2023/05/14 12:27:23;;;;;;;10.05;3.78;;;21.40;76.00;;;;;;5067681;28;20040;-68
2023/05/14 12:29:57;;;;;;;7.85;3.78;;;21.40;77.30;;;;;;5066666;28;20487;-66
2023/05/14 12:32:25;;;;;;;10.35;3.58;;;21.40;78.60;;;;;;5067696;28;20044;-71